Terminal Aerodrome Forecast
Issued by NWS Omaha/Valley, NE

Home | Current Version | Previous Version | Text Only | Print | Product List | Glossary On
Versions: 1 2 3 4 5 6 7 8 9 10 11 12 13 14 15 16 17 18 19 20 21 22 23 24 25 26 27 28
668
FTUS43 KOAX 110228 AAA
TAFLNK
TAF AMD
KLNK 110228Z 1102/1124 15009KT P6SM SCT025 BKN120
     FM111000 16005KT P6SM BKN015
     FM111300 24007KT 5SM BR BKN009
     FM111600 33012KT P6SM SCT020 BKN080
     FM112300 34010KT P6SM SCT250=

USA.gov is the U.S. government's official web portal to all federal, state and local government web resources and services.